.
WxDataArchive / Data Records for 2013-09-22
2013-09-21 September 2013 2013-09-23

Data Records for Sunday, 22 September 2013

Time	Temp	Chill	HIndex	Humid	Dewpt	 Wind 	HiWind	WindDir	Rain 	Barom 
-----	----	-----	------	-----	-----	------	------	-------	-----	----- 
00:00	51.4	51.4	51.4	84	46.7	0	0	---	0.00	29.888 
00:05	51.3	51.3	51.3	84	46.6	0	0	---	0.00	29.888 
00:10	51.3	51.3	51.3	84	46.6	0	0	---	0.00	29.888 
00:15	51.1	51.1	51.1	84	46.4	0	0	---	0.00	29.883 
00:20	51.1	51.1	51.1	84	46.4	0	0	---	0.00	29.883 
00:25	51.0	51.0	51.0	85	46.7	0	0	---	0.00	29.883 
00:30	51.0	51.0	51.0	85	46.7	0	0	---	0.00	29.883 
00:35	51.0	51.0	51.0	85	46.7	0	0	---	0.00	29.883 
00:40	51.0	51.0	51.0	85	46.7	0	0	---	0.00	29.883 
00:45	51.0	51.0	51.0	85	46.7	0	0	---	0.00	29.891 
00:50	50.8	50.8	50.8	85	46.5	0	0	---	0.00	29.891 
00:55	50.8	50.8	50.8	85	46.5	0	0	---	0.00	29.891 
01:00	50.7	50.7	50.7	85	46.4	0	0	---	0.00	29.895 
01:05	50.7	50.7	50.7	86	46.7	0	0	---	0.00	29.895 
01:10	50.7	50.7	50.7	86	46.7	0	0	---	0.00	29.895 
01:15	50.7	50.7	50.7	86	46.7	0	0	---	0.00	29.894 
01:20	50.7	50.7	50.7	86	46.7	0	0	---	0.00	29.894 
01:25	50.8	50.8	50.8	87	47.1	0	0	---	0.00	29.894 
01:30	51.0	51.0	51.0	87	47.3	0	0	---	0.00	29.895 
01:35	51.1	51.1	51.1	87	47.4	0	0	---	0.00	29.895 
01:40	51.3	51.3	51.3	87	47.6	0	0	---	0.00	29.895 
01:45	51.4	51.4	51.4	87	47.7	0	0	---	0.00	29.895 
01:50	51.6	51.6	51.6	87	47.9	0	0	---	0.00	29.895 
01:55	51.7	51.7	51.7	87	48.0	0	0	---	0.00	29.895 
02:00	51.7	51.7	51.7	87	48.0	0	0	---	0.00	29.897 
02:05	51.9	51.9	51.9	87	48.2	0	0	---	0.00	29.897 
02:10	52.0	52.0	52.0	87	48.3	0	0	---	0.00	29.897 
02:15	52.0	52.0	52.0	87	48.3	0	0	---	0.00	29.897 
02:20	52.2	52.2	52.2	87	48.4	0	0	---	0.00	29.897 
02:25	52.2	52.2	52.2	87	48.4	0	0	---	0.00	29.897 
02:30	52.3	52.3	52.3	87	48.5	0	0	---	0.00	29.905 
02:35	52.5	52.5	52.5	86	48.4	0	0	---	0.00	29.905 
02:40	52.5	52.5	52.5	86	48.4	0	0	---	0.00	29.905 
02:45	52.6	52.6	52.6	86	48.5	0	0	---	0.00	29.908 
02:50	52.8	52.8	52.8	86	48.7	0	0	---	0.00	29.908 
02:55	52.9	52.9	52.9	86	48.8	0	0	---	0.00	29.908 
03:00	53.1	53.1	53.1	86	49.0	0	0	---	0.00	29.905 
03:05	53.1	53.1	53.1	86	49.0	0	0	---	0.00	29.905 
03:10	53.1	53.1	53.1	86	49.0	0	0	---	0.00	29.905 
03:15	53.1	53.1	53.1	86	49.0	0	0	---	0.00	29.907 
03:20	53.2	53.2	53.2	85	48.8	0	0	---	0.00	29.907 
03:25	53.2	53.2	53.2	85	48.8	0	0	---	0.00	29.907 
03:30	53.3	53.3	53.3	85	48.9	0	0	---	0.00	29.910 
03:35	53.5	53.5	53.5	85	49.1	0	0	---	0.00	29.910 
03:40	53.5	53.5	53.5	85	49.1	0	0	---	0.00	29.910 
03:45	53.5	53.5	53.5	85	49.1	0	0	---	0.00	29.908 
03:50	53.6	53.6	53.6	85	49.2	0	0	---	0.00	29.908 
03:55	53.5	53.5	53.5	85	49.1	0	0	---	0.00	29.908 
04:00	53.5	53.5	53.5	85	49.1	0	0	---	0.00	29.908 
04:05	53.5	53.5	53.5	85	49.1	0	0	---	0.00	29.908 
04:10	53.5	53.5	53.5	85	49.1	0	0	---	0.00	29.908 
04:15	53.5	53.5	53.5	85	49.1	0	1	315	0.00	29.913 
04:20	53.5	53.5	53.5	85	49.1	0	0	---	0.00	29.913 
04:25	53.5	53.5	53.5	85	49.1	0	0	---	0.00	29.913 
04:30	53.3	53.3	53.3	85	48.9	0	2	315	0.00	29.921 
04:35	53.2	53.2	53.2	84	48.5	0	1	315	0.00	29.921 
04:40	53.2	53.2	53.2	83	48.2	0	1	315	0.00	29.921 
04:45	53.2	53.2	53.2	82	47.8	0	1	315	0.00	29.926 
04:50	53.2	53.2	53.2	81	47.5	0	1	315	0.00	29.926 
04:55	53.2	53.2	53.2	81	47.5	0	1	315	0.00	29.926 
05:00	53.1	53.1	53.1	81	47.4	0	0	---	0.00	29.927 
05:05	53.1	53.1	53.1	81	47.4	0	0	---	0.00	29.927 
05:10	52.9	52.9	52.9	81	47.2	0	0	---	0.00	29.927 
05:15	52.8	52.8	52.8	81	47.1	0	0	---	0.00	29.928 
05:20	52.8	52.8	52.8	81	47.1	0	0	---	0.00	29.928 
05:25	52.6	52.6	52.6	82	47.3	0	0	---	0.00	29.928 
05:30	52.3	52.3	52.3	82	47.0	0	0	---	0.00	29.928 
05:35	52.0	52.0	52.0	82	46.7	0	0	---	0.00	29.928 
05:40	51.7	51.7	51.7	83	46.7	0	0	---	0.00	29.928 
05:45	51.3	51.3	51.3	84	46.6	0	0	---	0.00	29.930 
05:50	51.0	51.0	51.0	84	46.3	0	0	---	0.00	29.930 
05:55	50.7	50.7	50.7	84	46.0	0	0	---	0.00	29.930 
06:00	50.4	50.4	50.4	85	46.1	0	0	---	0.00	29.934 
06:05	50.1	50.1	50.1	85	45.8	0	0	---	0.00	29.934 
06:10	49.9	49.9	49.9	86	45.9	0	0	---	0.00	29.934 
06:15	49.6	49.6	49.6	86	45.6	0	0	---	0.00	29.943 
06:20	49.4	49.4	49.4	87	45.7	0	0	---	0.00	29.943 
06:25	49.2	49.2	49.2	87	45.5	0	0	---	0.00	29.943 
06:30	48.9	48.9	48.9	87	45.2	0	0	---	0.00	29.947 
06:35	48.6	48.6	48.6	87	44.9	0	0	---	0.00	29.947 
06:40	48.3	48.3	48.3	87	44.6	0	0	---	0.00	29.947 
06:45	48.0	48.0	48.0	87	44.3	0	0	---	0.00	29.949 
06:50	47.7	47.7	47.7	88	44.3	0	0	---	0.00	29.949 
06:55	47.6	47.6	47.6	88	44.2	0	0	---	0.00	29.949 
07:00	47.3	47.3	47.3	88	43.9	0	0	---	0.00	29.953 
07:05	47.1	47.1	47.1	88	43.7	0	0	---	0.00	29.953 
07:10	46.8	46.8	46.8	88	43.4	0	0	---	0.00	29.953 
07:15	46.5	46.5	46.5	89	43.4	0	0	---	0.00	29.966 
07:20	46.4	46.4	46.4	89	43.3	0	0	---	0.00	29.966 
07:25	46.2	46.2	46.2	89	43.1	0	0	---	0.00	29.966 
07:30	46.1	46.1	46.1	89	43.0	0	0	---	0.00	29.970 
07:35	46.0	46.0	46.0	90	43.2	0	0	---	0.00	29.970 
07:40	45.8	45.8	45.8	90	43.0	0	0	---	0.00	29.970 
07:45	45.7	45.7	45.7	90	42.9	0	0	---	0.00	29.976 
07:50	45.5	45.5	45.5	90	42.7	0	0	---	0.00	29.976 
07:55	45.5	45.5	45.5	91	43.0	0	0	---	0.00	29.976 
08:00	45.5	45.5	45.5	91	43.0	0	0	---	0.00	29.984 
08:05	45.5	45.5	45.5	91	43.0	0	0	---	0.00	29.984 
08:10	45.7	45.7	45.7	91	43.2	0	0	---	0.00	29.984 
08:15	45.8	45.8	45.8	91	43.3	0	0	---	0.00	29.985 
08:20	46.0	46.0	46.0	92	43.8	0	0	---	0.00	29.985 
08:25	46.2	46.2	46.2	92	44.0	0	0	---	0.00	29.985 
08:30	46.7	46.7	46.7	92	44.5	0	0	---	0.00	29.984 
08:35	47.3	47.3	47.3	91	44.8	0	1	68	0.00	29.984 
08:40	47.9	47.9	47.9	90	45.1	0	1	68	0.00	29.984 
08:45	48.3	48.3	48.3	87	44.6	0	2	68	0.00	29.986 
08:50	48.9	48.9	48.9	84	44.3	0	1	68	0.00	29.986 
08:55	49.4	49.4	49.4	82	44.1	0	2	68	0.00	29.986 
09:00	49.8	49.8	49.8	80	43.9	0	3	90	0.00	29.993 
09:05	50.2	50.2	50.2	77	43.3	0	1	90	0.00	29.993 
09:10	50.5	50.5	50.5	76	43.2	0	1	90	0.00	29.993 
09:15	51.0	51.0	51.0	75	43.4	0	1	315	0.00	29.999 
09:20	51.3	51.3	51.3	74	43.3	0	1	315	0.00	29.999 
09:25	51.7	51.7	51.7	73	43.3	0	2	90	0.00	29.999 
09:30	52.0	52.0	52.0	71	42.9	0	1	90	0.00	30.001 
09:35	52.3	52.3	52.3	69	42.4	0	3	90	0.00	30.001 
09:40	52.8	52.8	52.8	68	42.5	1	3	90	0.00	30.001 
09:45	53.2	53.2	53.2	65	41.7	0	2	90	0.00	30.005 
09:50	53.5	53.5	53.5	65	42.0	0	3	90	0.00	30.005 
09:55	54.1	54.1	54.1	66	43.0	0	1	90	0.00	30.005 
10:00	54.4	54.4	54.4	61	41.2	1	5	90	0.00	30.011 
10:05	54.7	54.7	54.7	60	41.1	1	3	0	0.00	30.011 
10:10	55.0	55.0	55.0	60	41.4	1	3	292	0.00	30.011 
10:15	55.4	55.4	55.4	59	41.3	1	4	292	0.00	30.014 
10:20	55.9	55.9	55.9	56	40.4	2	5	112	0.00	30.014 
10:25	56.3	56.3	56.3	56	40.8	1	4	90	0.00	30.014 
10:30	56.9	56.9	56.9	54	40.4	1	4	112	0.00	30.013 
10:35	57.0	57.0	57.0	56	41.5	2	6	315	0.00	30.013 
10:40	57.2	57.2	57.2	56	41.6	1	4	315	0.00	30.013 
10:45	57.6	57.6	57.6	55	41.6	1	4	135	0.00	30.014 
10:50	58.0	58.0	58.0	55	41.9	1	3	270	0.00	30.014 
10:55	58.6	58.6	58.6	55	42.5	1	4	90	0.00	30.014 
11:00	59.2	59.2	59.2	54	42.6	1	3	158	0.00	30.012 
11:05	59.0	59.0	59.0	52	41.4	1	4	45	0.00	30.012 
11:10	58.9	58.9	58.9	54	42.3	1	3	22	0.00	30.012 
11:15	58.7	58.7	58.7	52	41.1	1	4	315	0.00	30.014 
11:20	58.6	58.6	58.6	51	40.5	1	5	292	0.00	30.014 
11:25	58.4	58.4	58.4	52	40.8	2	4	338	0.00	30.014 
11:30	58.3	58.3	58.3	54	41.7	1	6	292	0.00	30.016 
11:35	58.7	58.7	58.7	54	42.1	2	5	90	0.00	30.016 
11:40	58.7	58.7	58.7	52	41.1	1	4	0	0.00	30.016 
11:45	58.9	58.9	58.9	55	42.8	1	5	338	0.00	30.013 
11:50	59.0	59.0	59.0	53	41.9	2	6	338	0.00	30.013 
11:55	59.3	59.3	59.3	53	42.2	1	4	292	0.00	30.013 
12:00	59.3	59.3	59.3	51	41.2	2	6	292	0.00	30.012 
12:05	59.8	59.8	59.8	49	40.6	1	6	292	0.00	30.012 
12:10	59.9	59.9	59.9	52	42.2	1	4	292	0.00	30.012 
12:15	60.5	60.5	60.5	50	41.8	0	2	112	0.00	30.011 
12:20	61.0	61.0	61.0	49	41.7	1	3	45	0.00	30.011 
12:25	60.9	60.9	60.9	49	41.6	2	6	338	0.00	30.011 
12:30	60.9	60.9	60.9	52	43.2	1	6	270	0.00	30.008 
12:35	61.3	61.3	61.3	49	42.0	1	4	292	0.00	30.008 
12:40	61.6	61.6	61.6	49	42.3	1	5	112	0.00	30.008 
12:45	61.6	61.6	61.6	50	42.8	1	5	315	0.00	30.008 
12:50	61.8	61.8	61.8	48	41.9	1	4	315	0.00	30.008 
12:55	61.8	61.8	61.8	46	40.8	1	3	315	0.00	30.008 
13:00	61.8	61.8	61.8	49	42.4	1	4	292	0.00	30.007 
13:05	61.5	61.5	61.5	44	39.4	3	6	292	0.00	30.007 
13:10	61.6	61.6	61.6	49	42.3	2	4	315	0.00	30.007 
13:15	61.5	61.5	61.5	46	40.5	2	5	315	0.00	30.005 
13:20	61.6	61.6	61.6	48	41.7	1	4	315	0.00	30.005 
13:25	61.6	61.6	61.6	46	40.6	2	7	315	0.00	30.005 
13:30	61.8	61.8	61.8	47	41.4	2	4	270	0.00	30.002 
13:35	62.1	62.1	62.1	50	43.2	2	5	270	0.00	30.002 
13:40	62.6	62.6	62.6	46	41.5	1	5	112	0.00	30.002 
13:45	62.9	62.9	62.9	48	42.9	1	5	338	0.00	29.997 
13:50	62.6	62.6	62.6	45	41.0	2	4	292	0.00	29.997 
13:55	62.6	62.6	62.6	46	41.5	1	3	292	0.00	29.997 
14:00	62.7	62.7	62.7	47	42.2	0	2	292	0.00	29.994 
14:05	63.1	63.1	63.1	48	43.1	2	5	270	0.00	29.994 
14:10	63.1	63.1	63.1	46	42.0	1	5	270	0.00	29.994 
14:15	63.1	63.1	63.1	45	41.4	1	2	292	0.00	29.987 
14:20	63.1	63.1	63.1	46	42.0	1	3	292	0.00	29.987 
14:25	63.1	63.1	63.1	46	42.0	1	4	292	0.00	29.987 
14:30	63.4	63.4	63.4	46	42.3	0	2	315	0.00	29.980 
14:35	63.7	63.7	63.7	47	43.1	1	3	315	0.00	29.980 
14:40	63.9	63.9	63.9	47	43.3	1	3	135	0.00	29.980 
14:45	63.7	63.7	63.7	44	41.4	2	6	315	0.00	29.978 
14:50	63.9	63.9	63.9	47	43.3	0	2	338	0.00	29.978 
14:55	64.0	64.0	64.0	43	41.1	1	5	338	0.00	29.978 
15:00	63.7	63.7	63.7	44	41.4	1	4	315	0.00	29.977 
15:05	64.0	64.0	64.0	46	42.8	1	4	0	0.00	29.977 
15:10	64.0	64.0	64.0	43	41.1	2	4	292	0.00	29.977 
15:15	64.0	64.0	64.0	46	42.8	1	4	338	0.00	29.975 
15:20	64.3	64.3	64.3	46	43.1	1	4	112	0.00	29.975 
15:25	64.7	64.7	64.7	45	42.9	1	5	112	0.00	29.975 
15:30	64.5	64.5	64.5	43	41.5	1	4	338	0.00	29.975 
15:35	64.5	64.5	64.5	46	43.3	1	3	315	0.00	29.975 
15:40	64.7	64.7	64.7	45	42.9	0	2	90	0.00	29.975 
15:45	64.5	64.5	64.5	43	41.5	2	4	90	0.00	29.972 
15:50	64.3	64.3	64.3	45	42.5	2	4	315	0.00	29.972 
15:55	64.3	64.3	64.3	46	43.1	1	5	68	0.00	29.972 
16:00	64.2	64.2	64.2	45	42.4	1	3	315	0.00	29.974 
16:05	64.0	64.0	64.0	44	41.6	0	3	0	0.00	29.974 
16:10	63.9	63.9	63.9	46	42.7	1	3	338	0.00	29.974 
16:15	64.0	64.0	64.0	45	42.2	2	5	315	0.00	29.965 
16:20	64.0	64.0	64.0	43	41.1	1	3	292	0.00	29.965 
16:25	64.0	64.0	64.0	45	42.2	0	3	270	0.00	29.965 
16:30	64.0	64.0	64.0	45	42.2	0	3	292	0.00	29.964 
16:35	64.2	64.2	64.2	45	42.4	1	2	0	0.00	29.964 
16:40	64.2	64.2	64.2	46	43.0	0	1	0	0.00	29.964 
16:45	64.2	64.2	64.2	45	42.4	1	3	0	0.00	29.970 
16:50	64.2	64.2	64.2	43	41.2	0	2	338	0.00	29.970 
16:55	64.2	64.2	64.2	44	41.8	1	3	315	0.00	29.970 
17:00	64.2	64.2	64.2	45	42.4	0	3	315	0.00	29.969 
17:05	64.2	64.2	64.2	46	43.0	0	2	315	0.00	29.969 
17:10	64.0	64.0	64.0	45	42.2	0	2	315	0.00	29.969 
17:15	64.0	64.0	64.0	46	42.8	0	2	315	0.00	29.969 
17:20	63.9	63.9	63.9	44	41.6	1	5	315	0.00	29.969 
17:25	64.0	64.0	64.0	45	42.2	0	3	315	0.00	29.969 
17:30	63.9	63.9	63.9	45	42.1	0	2	315	0.00	29.967 
17:35	64.0	64.0	64.0	46	42.8	0	1	315	0.00	29.967 
17:40	63.9	63.9	63.9	46	42.7	0	2	202	0.00	29.967 
17:45	63.9	63.9	63.9	45	42.1	0	2	225	0.00	29.969 
17:50	63.9	63.9	63.9	45	42.1	0	1	225	0.00	29.969 
17:55	63.9	63.9	63.9	46	42.7	0	1	225	0.00	29.969 
18:00	63.7	63.7	63.7	46	42.5	0	3	135	0.00	29.973 
18:05	63.5	63.5	63.5	49	44.0	0	1	135	0.00	29.973 
18:10	63.5	63.5	63.5	48	43.5	0	1	135	0.00	29.973 
18:15	63.4	63.4	63.4	47	42.8	1	3	112	0.00	29.980 
18:20	63.1	63.1	63.1	48	43.1	1	5	112	0.00	29.980 
18:25	62.9	62.9	62.9	49	43.4	0	1	112	0.00	29.980 
18:30	62.6	62.6	62.6	49	43.2	1	4	158	0.00	29.981 
18:35	62.3	62.3	62.3	49	42.9	1	4	112	0.00	29.981 
18:40	62.1	62.1	62.1	50	43.2	0	2	90	0.00	29.981 
18:45	62.0	62.0	62.0	50	43.1	0	2	90	0.00	29.986 
18:50	61.8	61.8	61.8	51	43.5	0	2	90	0.00	29.986 
18:55	61.6	61.6	61.6	51	43.3	0	3	90	0.00	29.986 
19:00	61.3	61.3	61.3	52	43.5	0	1	90	0.00	29.993 
19:05	61.0	61.0	61.0	53	43.7	0	1	90	0.00	29.993 
19:10	60.7	60.7	60.7	53	43.5	0	1	90	0.00	29.993 
19:15	60.5	60.5	60.5	53	43.3	0	1	90	0.00	29.998 
19:20	60.2	60.2	60.2	54	43.5	0	1	90	0.00	29.998 
19:25	59.9	59.9	59.9	56	44.2	0	2	112	0.00	29.998 
19:30	59.5	59.5	59.5	56	43.8	0	4	135	0.00	30.001 
19:35	59.0	59.0	59.0	57	43.8	0	1	135	0.00	30.001 
19:40	58.7	58.7	58.7	58	44.0	0	1	135	0.00	30.001 
19:45	58.3	58.3	58.3	59	44.0	0	1	135	0.00	30.008 
19:50	58.0	58.0	58.0	59	43.8	0	0	---	0.00	30.008 
19:55	57.5	57.5	57.5	60	43.7	0	1	135	0.00	30.008 
20:00	57.2	57.2	57.2	61	43.9	0	0	---	0.00	30.016 
20:05	56.7	56.7	56.7	62	43.8	0	1	135	0.00	30.016 
20:10	56.5	56.5	56.5	62	43.6	0	0	---	0.00	30.016 
20:15	56.2	56.2	56.2	63	43.8	0	0	---	0.00	30.015 
20:20	55.9	55.9	55.9	65	44.3	0	1	135	0.00	30.015 
20:25	55.7	55.7	55.7	65	44.1	0	0	---	0.00	30.015 
20:30	55.4	55.4	55.4	65	43.8	0	1	135	0.00	30.017 
20:35	55.1	55.1	55.1	66	43.9	0	1	135	0.00	30.017 
20:40	54.8	54.8	54.8	66	43.7	0	1	135	0.00	30.017 
20:45	54.7	54.7	54.7	67	44.0	0	2	135	0.00	30.022 
20:50	54.4	54.4	54.4	67	43.7	0	1	135	0.00	30.022 
20:55	54.2	54.2	54.2	68	43.9	0	1	135	0.00	30.022 
21:00	54.1	54.1	54.1	68	43.8	0	1	135	0.00	30.029 
21:05	53.8	53.8	53.8	68	43.5	0	1	135	0.00	30.029 
21:10	53.6	53.6	53.6	69	43.7	0	1	135	0.00	30.029 
21:15	53.5	53.5	53.5	69	43.6	0	1	135	0.00	30.028 
21:20	53.2	53.2	53.2	69	43.3	0	2	135	0.00	30.028 
21:25	53.1	53.1	53.1	70	43.6	0	1	135	0.00	30.028 
21:30	52.8	52.8	52.8	71	43.7	0	2	135	0.00	30.033 
21:35	52.6	52.6	52.6	72	43.8	0	1	135	0.00	30.033 
21:40	52.5	52.5	52.5	72	43.7	0	1	135	0.00	30.033 
21:45	52.3	52.3	52.3	73	43.9	0	1	135	0.00	30.037 
21:50	52.2	52.2	52.2	73	43.8	0	2	135	0.00	30.037 
21:55	52.0	52.0	52.0	73	43.6	0	2	135	0.00	30.037 
22:00	51.9	51.9	51.9	73	43.5	0	1	135	0.00	30.042 
22:05	51.7	51.7	51.7	73	43.3	0	1	135	0.00	30.042 
22:10	51.6	51.6	51.6	73	43.2	0	1	135	0.00	30.042 
22:15	51.4	51.4	51.4	74	43.4	0	1	135	0.00	30.044 
22:20	51.3	51.3	51.3	74	43.3	0	2	135	0.00	30.044 
22:25	51.1	51.1	51.1	75	43.5	0	2	112	0.00	30.044 
22:30	51.0	51.0	51.0	75	43.4	0	1	112	0.00	30.045 
22:35	50.7	50.7	50.7	76	43.4	0	1	112	0.00	30.045 
22:40	50.4	50.4	50.4	76	43.1	0	2	112	0.00	30.045 
22:45	50.2	50.2	50.2	77	43.3	0	0	---	0.00	30.047 
22:50	49.9	49.9	49.9	77	43.0	0	1	112	0.00	30.047 
22:55	49.8	49.8	49.8	77	42.9	0	1	112	0.00	30.047 
23:00	49.5	49.5	49.5	78	42.9	0	1	112	0.00	30.051 
23:05	49.4	49.4	49.4	78	42.8	0	0	---	0.00	30.051 
23:10	49.2	49.2	49.2	79	43.0	0	0	---	0.00	30.051 
23:15	48.9	48.9	48.9	79	42.7	0	0	---	0.00	30.051 
23:20	48.8	48.8	48.8	80	42.9	0	0	---	0.00	30.051 
23:25	48.8	48.8	48.8	80	42.9	0	1	112	0.00	30.051 
23:30	48.6	48.6	48.6	80	42.7	0	1	112	0.00	30.052 
23:35	48.6	48.6	48.6	80	42.7	0	2	112	0.00	30.052 
23:40	48.5	48.5	48.5	80	42.6	0	0	---	0.00	30.052 
23:45	48.3	48.3	48.3	81	42.7	0	1	112	0.00	30.049 
23:50	48.3	48.3	48.3	81	42.7	0	1	112	0.00	30.049 
23:55	48.3	48.3	48.3	81	42.7	0	1	112	0.00	30.049 

CoCoRaHS
IN-AL-39
A2 Web Hosting
Creative Commons License
GoDaddy
search engine by freefind advanced

loaded 2018-11-14 03:57:24 • last modified 2010-11-18 10:43:29
Privacy PolicyDisclaimer
• wx.awcolley.com is powered by PmWiki v.2002016 •
• all content (unless otherwise noted) © 2018 A W Colley